sensor_id;sensor_type;location;lat;lon;timestamp;P1;durP1;ratioP1;P2;durP2;ratioP2
50495;SDS011;38806;51.554;5.704;2023-10-19T00:01:41;20.88;;;14.48;;
50495;SDS011;38806;51.554;5.704;2023-10-19T00:03:41;20.33;;;13.25;;
50495;SDS011;38806;51.554;5.704;2023-10-19T00:05:44;24.10;;;15.20;;
50495;SDS011;38806;51.554;5.704;2023-10-19T00:07:45;24.77;;;15.57;;
50495;SDS011;38806;51.554;5.704;2023-10-19T00:09:46;19.63;;;13.02;;
50495;SDS011;38806;51.554;5.704;2023-10-19T00:11:48;28.17;;;16.23;;
50495;SDS011;38806;51.554;5.704;2023-10-19T00:13:51;23.00;;;15.68;;
50495;SDS011;38806;51.554;5.704;2023-10-19T00:15:55;26.08;;;16.70;;
50495;SDS011;38806;51.554;5.704;2023-10-19T00:17:57;26.70;;;15.15;;
50495;SDS011;38806;51.554;5.704;2023-10-19T00:20:06;24.50;;;16.88;;
50495;SDS011;38806;51.554;5.704;2023-10-19T00:22:35;24.60;;;15.48;;
50495;SDS011;38806;51.554;5.704;2023-10-19T00:24:36;24.08;;;15.40;;
50495;SDS011;38806;51.554;5.704;2023-10-19T00:26:36;26.90;;;14.88;;
50495;SDS011;38806;51.554;5.704;2023-10-19T00:28:36;24.00;;;15.23;;
50495;SDS011;38806;51.554;5.704;2023-10-19T00:30:38;21.38;;;12.88;;
50495;SDS011;38806;51.554;5.704;2023-10-19T00:32:41;24.00;;;14.35;;
50495;SDS011;38806;51.554;5.704;2023-10-19T00:34:42;23.98;;;14.10;;
50495;SDS011;38806;51.554;5.704;2023-10-19T00:36:50;21.27;;;15.10;;
50495;SDS011;38806;51.554;5.704;2023-10-19T00:38:51;24.13;;;13.75;;
50495;SDS011;38806;51.554;5.704;2023-10-19T00:40:59;23.42;;;13.95;;
50495;SDS011;38806;51.554;5.704;2023-10-19T00:43:06;20.23;;;13.27;;
50495;SDS011;38806;51.554;5.704;2023-10-19T00:45:10;19.73;;;13.00;;
50495;SDS011;38806;51.554;5.704;2023-10-19T00:47:13;23.58;;;14.57;;
50495;SDS011;38806;51.554;5.704;2023-10-19T00:49:13;26.00;;;15.45;;
50495;SDS011;38806;51.554;5.704;2023-10-19T00:51:16;22.52;;;14.77;;
50495;SDS011;38806;51.554;5.704;2023-10-19T00:53:35;22.92;;;13.63;;
50495;SDS011;38806;51.554;5.704;2023-10-19T00:55:35;28.25;;;15.90;;
50495;SDS011;38806;51.554;5.704;2023-10-19T00:57:36;20.45;;;14.52;;
50495;SDS011;38806;51.554;5.704;2023-10-19T00:59:41;24.40;;;14.90;;
50495;SDS011;38806;51.554;5.704;2023-10-19T01:01:49;21.77;;;14.70;;
50495;SDS011;38806;51.554;5.704;2023-10-19T01:03:50;20.25;;;14.70;;
50495;SDS011;38806;51.554;5.704;2023-10-19T01:05:56;19.23;;;14.15;;
50495;SDS011;38806;51.554;5.704;2023-10-19T01:07:58;22.55;;;14.45;;
50495;SDS011;38806;51.554;5.704;2023-10-19T01:10:02;21.40;;;13.35;;
50495;SDS011;38806;51.554;5.704;2023-10-19T01:12:08;24.70;;;15.15;;
50495;SDS011;38806;51.554;5.704;2023-10-19T01:14:26;19.88;;;13.23;;
50495;SDS011;38806;51.554;5.704;2023-10-19T01:16:27;26.40;;;14.88;;
50495;SDS011;38806;51.554;5.704;2023-10-19T01:18:28;25.47;;;14.07;;
50495;SDS011;38806;51.554;5.704;2023-10-19T01:20:30;20.23;;;13.75;;
50495;SDS011;38806;51.554;5.704;2023-10-19T01:22:30;20.90;;;12.57;;
50495;SDS011;38806;51.554;5.704;2023-10-19T01:24:31;21.53;;;12.90;;
50495;SDS011;38806;51.554;5.704;2023-10-19T01:26:50;22.55;;;13.93;;
50495;SDS011;38806;51.554;5.704;2023-10-19T01:28:53;19.63;;;12.77;;
50495;SDS011;38806;51.554;5.704;2023-10-19T01:31:00;24.65;;;13.30;;
50495;SDS011;38806;51.554;5.704;2023-10-19T01:33:06;17.67;;;11.63;;
50495;SDS011;38806;51.554;5.704;2023-10-19T01:35:26;21.25;;;12.82;;
50495;SDS011;38806;51.554;5.704;2023-10-19T01:37:27;19.35;;;11.50;;
50495;SDS011;38806;51.554;5.704;2023-10-19T01:39:27;22.08;;;12.50;;
50495;SDS011;38806;51.554;5.704;2023-10-19T01:41:27;22.03;;;13.57;;
50495;SDS011;38806;51.554;5.704;2023-10-19T01:43:28;19.95;;;12.75;;
50495;SDS011;38806;51.554;5.704;2023-10-19T01:45:31;18.58;;;12.95;;
50495;SDS011;38806;51.554;5.704;2023-10-19T01:47:31;20.53;;;12.17;;
50495;SDS011;38806;51.554;5.704;2023-10-19T01:49:32;22.25;;;12.05;;
50495;SDS011;38806;51.554;5.704;2023-10-19T01:51:32;16.57;;;10.73;;
50495;SDS011;38806;51.554;5.704;2023-10-19T01:53:33;19.85;;;11.05;;
50495;SDS011;38806;51.554;5.704;2023-10-19T01:55:36;19.65;;;11.35;;
50495;SDS011;38806;51.554;5.704;2023-10-19T01:57:36;15.27;;;11.57;;
50495;SDS011;38806;51.554;5.704;2023-10-19T01:59:39;17.40;;;10.65;;
50495;SDS011;38806;51.554;5.704;2023-10-19T02:01:39;18.85;;;11.32;;
50495;SDS011;38806;51.554;5.704;2023-10-19T02:03:44;18.65;;;12.85;;
50495;SDS011;38806;51.554;5.704;2023-10-19T02:05:45;18.33;;;11.97;;
50495;SDS011;38806;51.554;5.704;2023-10-19T02:07:49;17.40;;;11.05;;
50495;SDS011;38806;51.554;5.704;2023-10-19T02:09:49;18.13;;;11.53;;
50495;SDS011;38806;51.554;5.704;2023-10-19T02:11:51;14.95;;;10.65;;
50495;SDS011;38806;51.554;5.704;2023-10-19T02:13:57;18.33;;;10.52;;
50495;SDS011;38806;51.554;5.704;2023-10-19T02:15:59;15.10;;;9.25;;
50495;SDS011;38806;51.554;5.704;2023-10-19T02:18:01;15.70;;;9.25;;
50495;SDS011;38806;51.554;5.704;2023-10-19T02:20:01;17.45;;;9.43;;
50495;SDS011;38806;51.554;5.704;2023-10-19T02:22:13;11.07;;;7.78;;
50495;SDS011;38806;51.554;5.704;2023-10-19T02:24:13;19.00;;;9.27;;
50495;SDS011;38806;51.554;5.704;2023-10-19T02:26:14;14.23;;;7.95;;
50495;SDS011;38806;51.554;5.704;2023-10-19T02:28:14;12.37;;;7.47;;
50495;SDS011;38806;51.554;5.704;2023-10-19T02:30:15;13.88;;;8.35;;
50495;SDS011;38806;51.554;5.704;2023-10-19T02:32:17;13.40;;;7.78;;
50495;SDS011;38806;51.554;5.704;2023-10-19T02:34:19;12.45;;;8.45;;
50495;SDS011;38806;51.554;5.704;2023-10-19T02:36:19;12.23;;;7.30;;
50495;SDS011;38806;51.554;5.704;2023-10-19T02:38:20;15.80;;;8.63;;
50495;SDS011;38806;51.554;5.704;2023-10-19T02:40:22;12.57;;;7.78;;
50495;SDS011;38806;51.554;5.704;2023-10-19T02:42:24;20.63;;;9.80;;
50495;SDS011;38806;51.554;5.704;2023-10-19T02:44:24;13.13;;;8.68;;
50495;SDS011;38806;51.554;5.704;2023-10-19T02:46:25;16.67;;;8.27;;
50495;SDS011;38806;51.554;5.704;2023-10-19T02:48:25;14.90;;;9.60;;
50495;SDS011;38806;51.554;5.704;2023-10-19T02:50:26;13.02;;;8.75;;
50495;SDS011;38806;51.554;5.704;2023-10-19T02:52:26;13.00;;;8.50;;
50495;SDS011;38806;51.554;5.704;2023-10-19T02:54:27;15.35;;;9.20;;
50495;SDS011;38806;51.554;5.704;2023-10-19T02:56:30;12.25;;;8.10;;
50495;SDS011;38806;51.554;5.704;2023-10-19T02:58:32;13.40;;;8.60;;
50495;SDS011;38806;51.554;5.704;2023-10-19T03:00:32;16.53;;;9.27;;
50495;SDS011;38806;51.554;5.704;2023-10-19T03:02:36;15.10;;;8.27;;
50495;SDS011;38806;51.554;5.704;2023-10-19T03:04:36;13.65;;;9.65;;
50495;SDS011;38806;51.554;5.704;2023-10-19T03:06:37;12.27;;;9.25;;
50495;SDS011;38806;51.554;5.704;2023-10-19T03:08:37;12.65;;;7.80;;
50495;SDS011;38806;51.554;5.704;2023-10-19T03:10:37;15.07;;;9.60;;
50495;SDS011;38806;51.554;5.704;2023-10-19T03:12:44;15.15;;;8.98;;
50495;SDS011;38806;51.554;5.704;2023-10-19T03:14:44;12.05;;;6.75;;
50495;SDS011;38806;51.554;5.704;2023-10-19T03:16:48;21.90;;;7.90;;
50495;SDS011;38806;51.554;5.704;2023-10-19T03:18:49;11.95;;;7.43;;
50495;SDS011;38806;51.554;5.704;2023-10-19T03:20:50;10.95;;;7.78;;
50495;SDS011;38806;51.554;5.704;2023-10-19T03:22:51;11.90;;;8.48;;
50495;SDS011;38806;51.554;5.704;2023-10-19T03:24:51;13.43;;;7.63;;
50495;SDS011;38806;51.554;5.704;2023-10-19T03:27:12;11.30;;;6.47;;
50495;SDS011;38806;51.554;5.704;2023-10-19T03:29:21;12.57;;;8.38;;
50495;SDS011;38806;51.554;5.704;2023-10-19T03:31:31;12.43;;;6.82;;
50495;SDS011;38806;51.554;5.704;2023-10-19T03:33:33;9.80;;;6.38;;
50495;SDS011;38806;51.554;5.704;2023-10-19T03:35:36;11.10;;;6.90;;
50495;SDS011;38806;51.554;5.704;2023-10-19T03:37:37;8.93;;;6.60;;
50495;SDS011;38806;51.554;5.704;2023-10-19T03:39:37;15.33;;;6.33;;
50495;SDS011;38806;51.554;5.704;2023-10-19T03:41:38;12.40;;;7.22;;
50495;SDS011;38806;51.554;5.704;2023-10-19T03:43:41;11.27;;;6.63;;
50495;SDS011;38806;51.554;5.704;2023-10-19T03:45:43;10.00;;;6.95;;
50495;SDS011;38806;51.554;5.704;2023-10-19T03:47:48;11.05;;;6.90;;
50495;SDS011;38806;51.554;5.704;2023-10-19T03:49:50;9.73;;;6.63;;
50495;SDS011;38806;51.554;5.704;2023-10-19T03:51:50;10.87;;;6.60;;
50495;SDS011;38806;51.554;5.704;2023-10-19T03:54:20;12.40;;;5.78;;
50495;SDS011;38806;51.554;5.704;2023-10-19T03:56:23;10.93;;;6.32;;
50495;SDS011;38806;51.554;5.704;2023-10-19T03:58:24;10.23;;;6.57;;
50495;SDS011;38806;51.554;5.704;2023-10-19T04:00:24;10.75;;;6.55;;
50495;SDS011;38806;51.554;5.704;2023-10-19T04:02:25;10.55;;;6.45;;
50495;SDS011;38806;51.554;5.704;2023-10-19T04:04:26;16.77;;;6.97;;
50495;SDS011;38806;51.554;5.704;2023-10-19T04:06:29;8.77;;;5.93;;
50495;SDS011;38806;51.554;5.704;2023-10-19T04:08:29;10.18;;;5.07;;
50495;SDS011;38806;51.554;5.704;2023-10-19T04:10:35;14.00;;;6.20;;
50495;SDS011;38806;51.554;5.704;2023-10-19T04:12:35;10.33;;;6.13;;
50495;SDS011;38806;51.554;5.704;2023-10-19T04:14:36;8.80;;;4.70;;
50495;SDS011;38806;51.554;5.704;2023-10-19T04:16:38;7.70;;;4.28;;
50495;SDS011;38806;51.554;5.704;2023-10-19T04:18:43;8.35;;;4.68;;
50495;SDS011;38806;51.554;5.704;2023-10-19T04:20:44;8.90;;;4.15;;
50495;SDS011;38806;51.554;5.704;2023-10-19T04:22:50;8.90;;;4.22;;
50495;SDS011;38806;51.554;5.704;2023-10-19T04:24:50;9.20;;;5.00;;
50495;SDS011;38806;51.554;5.704;2023-10-19T04:26:50;9.63;;;4.75;;
50495;SDS011;38806;51.554;5.704;2023-10-19T04:28:51;5.85;;;3.10;;
50495;SDS011;38806;51.554;5.704;2023-10-19T04:30:51;7.95;;;4.07;;
50495;SDS011;38806;51.554;5.704;2023-10-19T04:32:51;6.88;;;3.67;;
50495;SDS011;38806;51.554;5.704;2023-10-19T04:34:54;9.63;;;5.05;;
50495;SDS011;38806;51.554;5.704;2023-10-19T04:36:55;10.32;;;3.70;;
50495;SDS011;38806;51.554;5.704;2023-10-19T04:38:55;10.07;;;3.15;;
50495;SDS011;38806;51.554;5.704;2023-10-19T04:41:03;6.72;;;4.05;;
50495;SDS011;38806;51.554;5.704;2023-10-19T04:43:03;8.30;;;3.50;;
50495;SDS011;38806;51.554;5.704;2023-10-19T04:45:05;5.85;;;3.00;;
50495;SDS011;38806;51.554;5.704;2023-10-19T04:47:05;7.32;;;3.10;;
50495;SDS011;38806;51.554;5.704;2023-10-19T04:49:06;8.33;;;2.93;;
50495;SDS011;38806;51.554;5.704;2023-10-19T04:51:06;8.00;;;3.03;;
50495;SDS011;38806;51.554;5.704;2023-10-19T04:53:07;6.07;;;2.28;;
50495;SDS011;38806;51.554;5.704;2023-10-19T04:55:07;8.35;;;3.08;;
50495;SDS011;38806;51.554;5.704;2023-10-19T04:57:07;10.23;;;2.55;;
50495;SDS011;38806;51.554;5.704;2023-10-19T04:59:07;5.43;;;2.63;;
50495;SDS011;38806;51.554;5.704;2023-10-19T05:01:08;6.45;;;2.15;;
50495;SDS011;38806;51.554;5.704;2023-10-19T05:03:11;5.22;;;2.65;;
50495;SDS011;38806;51.554;5.704;2023-10-19T05:05:15;6.07;;;2.60;;
50495;SDS011;38806;51.554;5.704;2023-10-19T05:07:17;7.88;;;2.22;;
50495;SDS011;38806;51.554;5.704;2023-10-19T05:09:17;3.90;;;2.20;;
50495;SDS011;38806;51.554;5.704;2023-10-19T05:11:18;9.32;;;2.65;;
50495;SDS011;38806;51.554;5.704;2023-10-19T05:13:18;9.13;;;3.03;;
50495;SDS011;38806;51.554;5.704;2023-10-19T05:15:19;7.15;;;2.67;;
50495;SDS011;38806;51.554;5.704;2023-10-19T05:17:19;4.00;;;2.27;;
50495;SDS011;38806;51.554;5.704;2023-10-19T05:19:21;6.47;;;2.50;;
50495;SDS011;38806;51.554;5.704;2023-10-19T05:21:21;7.63;;;1.97;;
50495;SDS011;38806;51.554;5.704;2023-10-19T05:23:22;7.53;;;2.20;;
50495;SDS011;38806;51.554;5.704;2023-10-19T05:25:23;5.38;;;1.85;;
50495;SDS011;38806;51.554;5.704;2023-10-19T05:27:24;6.65;;;1.80;;
50495;SDS011;38806;51.554;5.704;2023-10-19T05:29:25;10.30;;;2.33;;
50495;SDS011;38806;51.554;5.704;2023-10-19T05:31:25;11.83;;;2.80;;
50495;SDS011;38806;51.554;5.704;2023-10-19T05:33:27;6.20;;;2.17;;
50495;SDS011;38806;51.554;5.704;2023-10-19T05:35:28;5.22;;;2.28;;
50495;SDS011;38806;51.554;5.704;2023-10-19T05:37:28;8.90;;;2.92;;
50495;SDS011;38806;51.554;5.704;2023-10-19T05:39:29;4.65;;;1.67;;
50495;SDS011;38806;51.554;5.704;2023-10-19T05:41:31;6.18;;;2.40;;
50495;SDS011;38806;51.554;5.704;2023-10-19T05:43:31;5.82;;;1.98;;
50495;SDS011;38806;51.554;5.704;2023-10-19T05:45:31;9.88;;;2.35;;
50495;SDS011;38806;51.554;5.704;2023-10-19T05:47:32;8.50;;;2.88;;
50495;SDS011;38806;51.554;5.704;2023-10-19T05:49:32;5.30;;;2.30;;
50495;SDS011;38806;51.554;5.704;2023-10-19T05:51:32;5.65;;;1.95;;
50495;SDS011;38806;51.554;5.704;2023-10-19T05:53:32;3.33;;;2.20;;
50495;SDS011;38806;51.554;5.704;2023-10-19T05:55:33;12.70;;;2.78;;
50495;SDS011;38806;51.554;5.704;2023-10-19T05:57:36;6.05;;;2.47;;
50495;SDS011;38806;51.554;5.704;2023-10-19T05:59:36;8.68;;;2.88;;
50495;SDS011;38806;51.554;5.704;2023-10-19T06:01:38;9.95;;;2.55;;
50495;SDS011;38806;51.554;5.704;2023-10-19T06:03:38;7.75;;;2.70;;
50495;SDS011;38806;51.554;5.704;2023-10-19T06:05:38;7.22;;;2.42;;
50495;SDS011;38806;51.554;5.704;2023-10-19T06:07:39;6.90;;;2.50;;
50495;SDS011;38806;51.554;5.704;2023-10-19T06:09:39;6.23;;;2.40;;
50495;SDS011;38806;51.554;5.704;2023-10-19T06:11:40;7.93;;;2.50;;
50495;SDS011;38806;51.554;5.704;2023-10-19T06:13:43;7.57;;;2.85;;
50495;SDS011;38806;51.554;5.704;2023-10-19T06:15:43;6.57;;;3.08;;
50495;SDS011;38806;51.554;5.704;2023-10-19T06:17:43;7.15;;;2.80;;
50495;SDS011;38806;51.554;5.704;2023-10-19T06:19:45;4.75;;;1.95;;
50495;SDS011;38806;51.554;5.704;2023-10-19T06:21:45;9.45;;;2.75;;
50495;SDS011;38806;51.554;5.704;2023-10-19T06:23:46;5.60;;;2.37;;
50495;SDS011;38806;51.554;5.704;2023-10-19T06:25:46;7.38;;;3.65;;
50495;SDS011;38806;51.554;5.704;2023-10-19T06:27:47;8.65;;;2.63;;
50495;SDS011;38806;51.554;5.704;2023-10-19T06:29:47;9.73;;;3.88;;
50495;SDS011;38806;51.554;5.704;2023-10-19T06:31:49;8.27;;;2.90;;
50495;SDS011;38806;51.554;5.704;2023-10-19T06:33:49;7.13;;;2.47;;
50495;SDS011;38806;51.554;5.704;2023-10-19T06:35:50;8.05;;;3.30;;
50495;SDS011;38806;51.554;5.704;2023-10-19T06:37:50;6.20;;;2.50;;
50495;SDS011;38806;51.554;5.704;2023-10-19T06:39:50;7.60;;;2.37;;
50495;SDS011;38806;51.554;5.704;2023-10-19T06:41:51;10.20;;;3.13;;
50495;SDS011;38806;51.554;5.704;2023-10-19T06:43:52;8.70;;;2.70;;
50495;SDS011;38806;51.554;5.704;2023-10-19T06:45:52;8.07;;;2.58;;
50495;SDS011;38806;51.554;5.704;2023-10-19T06:47:52;12.93;;;5.00;;
50495;SDS011;38806;51.554;5.704;2023-10-19T06:49:52;6.47;;;2.43;;
50495;SDS011;38806;51.554;5.704;2023-10-19T06:51:53;10.88;;;2.53;;
50495;SDS011;38806;51.554;5.704;2023-10-19T06:53:54;5.18;;;1.98;;
50495;SDS011;38806;51.554;5.704;2023-10-19T06:55:54;12.73;;;4.25;;
50495;SDS011;38806;51.554;5.704;2023-10-19T06:57:54;8.88;;;2.53;;
50495;SDS011;38806;51.554;5.704;2023-10-19T06:59:59;5.53;;;2.08;;
50495;SDS011;38806;51.554;5.704;2023-10-19T07:01:59;8.60;;;2.63;;
50495;SDS011;38806;51.554;5.704;2023-10-19T07:04:01;9.40;;;3.03;;
50495;SDS011;38806;51.554;5.704;2023-10-19T07:06:01;7.10;;;2.30;;
50495;SDS011;38806;51.554;5.704;2023-10-19T07:08:02;10.45;;;2.58;;
50495;SDS011;38806;51.554;5.704;2023-10-19T07:10:07;10.98;;;3.42;;
50495;SDS011;38806;51.554;5.704;2023-10-19T07:12:08;7.05;;;2.80;;
50495;SDS011;38806;51.554;5.704;2023-10-19T07:14:08;17.37;;;2.77;;
50495;SDS011;38806;51.554;5.704;2023-10-19T07:16:13;10.38;;;3.17;;
50495;SDS011;38806;51.554;5.704;2023-10-19T07:18:14;14.57;;;2.88;;
50495;SDS011;38806;51.554;5.704;2023-10-19T07:20:16;8.02;;;3.00;;
50495;SDS011;38806;51.554;5.704;2023-10-19T07:22:25;4.47;;;2.58;;
50495;SDS011;38806;51.554;5.704;2023-10-19T07:24:26;6.80;;;2.83;;
50495;SDS011;38806;51.554;5.704;2023-10-19T07:26:26;7.95;;;3.83;;
50495;SDS011;38806;51.554;5.704;2023-10-19T07:28:32;12.07;;;4.38;;
50495;SDS011;38806;51.554;5.704;2023-10-19T07:30:32;11.38;;;2.75;;
50495;SDS011;38806;51.554;5.704;2023-10-19T07:32:32;10.60;;;4.13;;
50495;SDS011;38806;51.554;5.704;2023-10-19T07:34:33;7.55;;;2.53;;
50495;SDS011;38806;51.554;5.704;2023-10-19T07:36:34;6.28;;;2.53;;
50495;SDS011;38806;51.554;5.704;2023-10-19T07:38:36;10.07;;;2.47;;
50495;SDS011;38806;51.554;5.704;2023-10-19T07:40:39;9.10;;;3.17;;
50495;SDS011;38806;51.554;5.704;2023-10-19T07:42:41;9.25;;;2.95;;
50495;SDS011;38806;51.554;5.704;2023-10-19T07:44:43;9.70;;;2.97;;
50495;SDS011;38806;51.554;5.704;2023-10-19T07:46:43;9.63;;;3.10;;
50495;SDS011;38806;51.554;5.704;2023-10-19T07:48:44;6.68;;;2.60;;
50495;SDS011;38806;51.554;5.704;2023-10-19T07:50:44;9.57;;;4.17;;
50495;SDS011;38806;51.554;5.704;2023-10-19T07:52:45;13.32;;;2.83;;
50495;SDS011;38806;51.554;5.704;2023-10-19T07:54:47;5.70;;;2.33;;
50495;SDS011;38806;51.554;5.704;2023-10-19T07:56:47;16.25;;;3.55;;
50495;SDS011;38806;51.554;5.704;2023-10-19T07:58:50;12.52;;;3.85;;
50495;SDS011;38806;51.554;5.704;2023-10-19T08:00:50;12.32;;;3.83;;
50495;SDS011;38806;51.554;5.704;2023-10-19T08:02:52;11.20;;;2.95;;
50495;SDS011;38806;51.554;5.704;2023-10-19T08:04:53;11.27;;;2.97;;
50495;SDS011;38806;51.554;5.704;2023-10-19T08:06:54;14.60;;;3.30;;
50495;SDS011;38806;51.554;5.704;2023-10-19T08:08:55;8.63;;;2.42;;
50495;SDS011;38806;51.554;5.704;2023-10-19T08:10:55;8.52;;;2.42;;
50495;SDS011;38806;51.554;5.704;2023-10-19T08:12:56;10.05;;;2.55;;
50495;SDS011;38806;51.554;5.704;2023-10-19T08:14:58;9.23;;;2.60;;
50495;SDS011;38806;51.554;5.704;2023-10-19T08:16:59;6.38;;;2.58;;
50495;SDS011;38806;51.554;5.704;2023-10-19T08:18:59;9.00;;;2.78;;
50495;SDS011;38806;51.554;5.704;2023-10-19T08:20:59;5.70;;;2.58;;
50495;SDS011;38806;51.554;5.704;2023-10-19T08:23:00;8.85;;;3.50;;
50495;SDS011;38806;51.554;5.704;2023-10-19T08:25:05;7.78;;;2.83;;
50495;SDS011;38806;51.554;5.704;2023-10-19T08:27:11;9.50;;;3.28;;
50495;SDS011;38806;51.554;5.704;2023-10-19T08:29:12;6.57;;;2.28;;
50495;SDS011;38806;51.554;5.704;2023-10-19T08:31:13;7.88;;;2.25;;
50495;SDS011;38806;51.554;5.704;2023-10-19T08:33:14;7.63;;;2.40;;
50495;SDS011;38806;51.554;5.704;2023-10-19T08:35:15;6.15;;;2.47;;
50495;SDS011;38806;51.554;5.704;2023-10-19T08:37:18;5.10;;;2.28;;
50495;SDS011;38806;51.554;5.704;2023-10-19T08:39:19;9.18;;;3.28;;
50495;SDS011;38806;51.554;5.704;2023-10-19T08:41:19;10.07;;;3.97;;
50495;SDS011;38806;51.554;5.704;2023-10-19T08:43:19;11.00;;;3.30;;
50495;SDS011;38806;51.554;5.704;2023-10-19T08:45:21;9.65;;;3.33;;
50495;SDS011;38806;51.554;5.704;2023-10-19T08:47:21;13.68;;;3.53;;
50495;SDS011;38806;51.554;5.704;2023-10-19T08:49:25;7.43;;;3.17;;
50495;SDS011;38806;51.554;5.704;2023-10-19T08:51:28;6.97;;;3.03;;
50495;SDS011;38806;51.554;5.704;2023-10-19T08:53:29;6.03;;;2.80;;
50495;SDS011;38806;51.554;5.704;2023-10-19T08:55:29;9.63;;;3.30;;
50495;SDS011;38806;51.554;5.704;2023-10-19T08:57:36;6.70;;;2.88;;
50495;SDS011;38806;51.554;5.704;2023-10-19T08:59:36;8.82;;;3.17;;
50495;SDS011;38806;51.554;5.704;2023-10-19T09:01:38;16.88;;;3.47;;
50495;SDS011;38806;51.554;5.704;2023-10-19T09:03:38;8.63;;;3.00;;
50495;SDS011;38806;51.554;5.704;2023-10-19T09:05:40;8.10;;;2.50;;
50495;SDS011;38806;51.554;5.704;2023-10-19T09:07:41;8.90;;;3.00;;
50495;SDS011;38806;51.554;5.704;2023-10-19T09:09:41;6.57;;;2.72;;
50495;SDS011;38806;51.554;5.704;2023-10-19T09:11:48;9.70;;;2.90;;
50495;SDS011;38806;51.554;5.704;2023-10-19T09:13:49;7.05;;;2.80;;
50495;SDS011;38806;51.554;5.704;2023-10-19T09:15:49;9.10;;;3.10;;
50495;SDS011;38806;51.554;5.704;2023-10-19T09:17:53;10.38;;;3.10;;
50495;SDS011;38806;51.554;5.704;2023-10-19T09:19:54;9.63;;;2.88;;
50495;SDS011;38806;51.554;5.704;2023-10-19T09:21:56;6.82;;;3.00;;
50495;SDS011;38806;51.554;5.704;2023-10-19T09:23:57;8.85;;;3.40;;
50495;SDS011;38806;51.554;5.704;2023-10-19T09:25:58;8.27;;;2.70;;
50495;SDS011;38806;51.554;5.704;2023-10-19T09:27:58;7.38;;;3.90;;
50495;SDS011;38806;51.554;5.704;2023-10-19T09:29:58;6.53;;;2.67;;
50495;SDS011;38806;51.554;5.704;2023-10-19T09:32:01;14.18;;;3.25;;
50495;SDS011;38806;51.554;5.704;2023-10-19T09:34:03;11.65;;;2.90;;
50495;SDS011;38806;51.554;5.704;2023-10-19T09:36:05;8.93;;;2.80;;
50495;SDS011;38806;51.554;5.704;2023-10-19T09:38:12;7.22;;;3.30;;
50495;SDS011;38806;51.554;5.704;2023-10-19T09:40:13;8.30;;;3.30;;
50495;SDS011;38806;51.554;5.704;2023-10-19T09:42:13;10.37;;;2.90;;
50495;SDS011;38806;51.554;5.704;2023-10-19T09:44:17;6.18;;;2.72;;
50495;SDS011;38806;51.554;5.704;2023-10-19T09:48:19;7.67;;;2.30;;
50495;SDS011;38806;51.554;5.704;2023-10-19T09:50:19;7.55;;;2.63;;
50495;SDS011;38806;51.554;5.704;2023-10-19T09:52:19;9.43;;;2.83;;
50495;SDS011;38806;51.554;5.704;2023-10-19T09:54:26;7.65;;;2.40;;
50495;SDS011;38806;51.554;5.704;2023-10-19T09:56:38;7.93;;;3.28;;
50495;SDS011;38806;51.554;5.704;2023-10-19T09:58:44;10.13;;;3.83;;
50495;SDS011;38806;51.554;5.704;2023-10-19T10:00:45;11.02;;;3.75;;
50495;SDS011;38806;51.554;5.704;2023-10-19T10:02:45;8.77;;;3.95;;
50495;SDS011;38806;51.554;5.704;2023-10-19T10:04:46;11.82;;;3.38;;
50495;SDS011;38806;51.554;5.704;2023-10-19T10:08:50;13.23;;;4.22;;
50495;SDS011;38806;51.554;5.704;2023-10-19T10:10:51;13.98;;;3.00;;
50495;SDS011;38806;51.554;5.704;2023-10-19T10:12:51;6.33;;;3.17;;
50495;SDS011;38806;51.554;5.704;2023-10-19T10:15:01;11.87;;;5.40;;
50495;SDS011;38806;51.554;5.704;2023-10-19T10:17:02;11.23;;;4.47;;
50495;SDS011;38806;51.554;5.704;2023-10-19T10:19:02;11.35;;;4.75;;
50495;SDS011;38806;51.554;5.704;2023-10-19T10:21:05;5.35;;;2.70;;
50495;SDS011;38806;51.554;5.704;2023-10-19T10:23:20;8.07;;;3.33;;
50495;SDS011;38806;51.554;5.704;2023-10-19T10:25:32;10.68;;;4.05;;
50495;SDS011;38806;51.554;5.704;2023-10-19T10:27:48;10.60;;;3.03;;
50495;SDS011;38806;51.554;5.704;2023-10-19T10:29:55;13.10;;;3.72;;
50495;SDS011;38806;51.554;5.704;2023-10-19T10:31:55;8.52;;;2.97;;
50495;SDS011;38806;51.554;5.704;2023-10-19T10:33:56;8.27;;;2.47;;
50495;SDS011;38806;51.554;5.704;2023-10-19T10:35:56;8.85;;;2.78;;
50495;SDS011;38806;51.554;5.704;2023-10-19T10:37:56;15.70;;;3.43;;
50495;SDS011;38806;51.554;5.704;2023-10-19T10:39:58;8.07;;;2.50;;
50495;SDS011;38806;51.554;5.704;2023-10-19T10:41:59;8.10;;;2.67;;
50495;SDS011;38806;51.554;5.704;2023-10-19T10:44:00;8.65;;;2.75;;
50495;SDS011;38806;51.554;5.704;2023-10-19T10:46:04;10.83;;;2.57;;
50495;SDS011;38806;51.554;5.704;2023-10-19T10:48:10;3.85;;;2.38;;
50495;SDS011;38806;51.554;5.704;2023-10-19T10:50:10;9.65;;;2.85;;
50495;SDS011;38806;51.554;5.704;2023-10-19T10:52:10;6.28;;;2.03;;
50495;SDS011;38806;51.554;5.704;2023-10-19T10:54:11;11.65;;;3.30;;
50495;SDS011;38806;51.554;5.704;2023-10-19T10:56:14;5.50;;;2.42;;
50495;SDS011;38806;51.554;5.704;2023-10-19T10:58:17;10.30;;;3.55;;
50495;SDS011;38806;51.554;5.704;2023-10-19T11:00:18;4.75;;;2.95;;
50495;SDS011;38806;51.554;5.704;2023-10-19T11:02:25;6.00;;;2.45;;
50495;SDS011;38806;51.554;5.704;2023-10-19T11:04:26;6.13;;;2.30;;
50495;SDS011;38806;51.554;5.704;2023-10-19T11:06:26;8.80;;;2.22;;
50495;SDS011;38806;51.554;5.704;2023-10-19T11:08:26;8.83;;;2.50;;
50495;SDS011;38806;51.554;5.704;2023-10-19T11:10:28;10.82;;;2.92;;
50495;SDS011;38806;51.554;5.704;2023-10-19T11:12:29;8.45;;;3.22;;
50495;SDS011;38806;51.554;5.704;2023-10-19T11:14:29;9.90;;;2.50;;
50495;SDS011;38806;51.554;5.704;2023-10-19T11:16:29;7.77;;;2.70;;
50495;SDS011;38806;51.554;5.704;2023-10-19T11:20:33;9.07;;;2.60;;
50495;SDS011;38806;51.554;5.704;2023-10-19T11:22:33;8.48;;;2.75;;
50495;SDS011;38806;51.554;5.704;2023-10-19T11:24:47;9.68;;;2.88;;
50495;SDS011;38806;51.554;5.704;2023-10-19T11:26:48;15.73;;;2.88;;
50495;SDS011;38806;51.554;5.704;2023-10-19T11:28:58;9.47;;;2.87;;
50495;SDS011;38806;51.554;5.704;2023-10-19T11:33:17;9.65;;;3.25;;
50495;SDS011;38806;51.554;5.704;2023-10-19T11:35:22;11.85;;;3.10;;
50495;SDS011;38806;51.554;5.704;2023-10-19T11:37:22;10.32;;;3.85;;
50495;SDS011;38806;51.554;5.704;2023-10-19T11:39:23;12.50;;;2.20;;
50495;SDS011;38806;51.554;5.704;2023-10-19T11:41:23;8.73;;;2.28;;
50495;SDS011;38806;51.554;5.704;2023-10-19T11:43:23;9.67;;;2.70;;
50495;SDS011;38806;51.554;5.704;2023-10-19T11:45:24;9.20;;;2.60;;
50495;SDS011;38806;51.554;5.704;2023-10-19T11:47:24;11.00;;;2.57;;
50495;SDS011;38806;51.554;5.704;2023-10-19T11:49:24;23.13;;;5.17;;
50495;SDS011;38806;51.554;5.704;2023-10-19T11:51:24;9.40;;;2.90;;
50495;SDS011;38806;51.554;5.704;2023-10-19T11:53:24;9.87;;;2.30;;
50495;SDS011;38806;51.554;5.704;2023-10-19T11:55:24;18.77;;;2.80;;
50495;SDS011;38806;51.554;5.704;2023-10-19T11:57:25;9.30;;;2.83;;
50495;SDS011;38806;51.554;5.704;2023-10-19T11:59:25;11.23;;;3.60;;
50495;SDS011;38806;51.554;5.704;2023-10-19T12:01:26;9.68;;;2.63;;
50495;SDS011;38806;51.554;5.704;2023-10-19T12:03:27;6.53;;;2.42;;
50495;SDS011;38806;51.554;5.704;2023-10-19T12:05:29;9.07;;;3.20;;
50495;SDS011;38806;51.554;5.704;2023-10-19T12:07:29;9.55;;;3.55;;
50495;SDS011;38806;51.554;5.704;2023-10-19T12:09:29;8.55;;;2.58;;
50495;SDS011;38806;51.554;5.704;2023-10-19T12:11:30;10.65;;;3.42;;
50495;SDS011;38806;51.554;5.704;2023-10-19T12:13:30;14.10;;;3.78;;
50495;SDS011;38806;51.554;5.704;2023-10-19T12:15:31;10.77;;;2.38;;
50495;SDS011;38806;51.554;5.704;2023-10-19T12:17:31;6.68;;;2.53;;